sensor_id;sensor_type;location;lat;lon;timestamp;temperature;humidity
52889;DHT22;41413;52.770;6.892;2023-05-29T00:01:32;12.10;99.90
52889;DHT22;41413;52.770;6.892;2023-05-29T00:03:59;12.00;99.90
52889;DHT22;41413;52.770;6.892;2023-05-29T00:06:26;12.00;99.90
52889;DHT22;41413;52.770;6.892;2023-05-29T00:08:53;12.00;99.90
52889;DHT22;41413;52.770;6.892;2023-05-29T00:11:19;12.00;99.90
52889;DHT22;41413;52.770;6.892;2023-05-29T00:13:46;11.90;99.90
52889;DHT22;41413;52.770;6.892;2023-05-29T00:16:13;11.90;99.90
52889;DHT22;41413;52.770;6.892;2023-05-29T00:18:40;11.80;99.90
52889;DHT22;41413;52.770;6.892;2023-05-29T00:21:12;11.80;99.90
52889;DHT22;41413;52.770;6.892;2023-05-29T00:23:40;11.80;99.90
52889;DHT22;41413;52.770;6.892;2023-05-29T00:26:07;11.80;99.90
52889;DHT22;41413;52.770;6.892;2023-05-29T00:28:34;11.80;99.90
52889;DHT22;41413;52.770;6.892;2023-05-29T00:31:01;11.70;99.90
52889;DHT22;41413;52.770;6.892;2023-05-29T00:33:28;11.80;99.90
52889;DHT22;41413;52.770;6.892;2023-05-29T00:35:55;11.70;99.90
52889;DHT22;41413;52.770;6.892;2023-05-29T00:38:22;11.70;99.90
52889;DHT22;41413;52.770;6.892;2023-05-29T00:40:49;11.70;99.90
52889;DHT22;41413;52.770;6.892;2023-05-29T00:43:16;11.60;99.90
52889;DHT22;41413;52.770;6.892;2023-05-29T00:45:42;11.60;99.90
52889;DHT22;41413;52.770;6.892;2023-05-29T00:48:09;11.60;99.90
52889;DHT22;41413;52.770;6.892;2023-05-29T00:50:36;11.60;99.90
52889;DHT22;41413;52.770;6.892;2023-05-29T00:53:03;11.60;99.90
52889;DHT22;41413;52.770;6.892;2023-05-29T00:55:31;11.50;99.90
52889;DHT22;41413;52.770;6.892;2023-05-29T00:57:58;11.50;99.90
52889;DHT22;41413;52.770;6.892;2023-05-29T01:00:25;11.40;99.90
52889;DHT22;41413;52.770;6.892;2023-05-29T01:02:52;11.40;99.90
52889;DHT22;41413;52.770;6.892;2023-05-29T01:05:19;11.40;99.90
52889;DHT22;41413;52.770;6.892;2023-05-29T01:07:46;11.30;99.90
52889;DHT22;41413;52.770;6.892;2023-05-29T01:10:13;11.40;99.90
52889;DHT22;41413;52.770;6.892;2023-05-29T01:15:46;11.40;99.90
52889;DHT22;41413;52.770;6.892;2023-05-29T01:21:19;11.30;99.90
52889;DHT22;41413;52.770;6.892;2023-05-29T01:24:02;11.30;99.90
52889;DHT22;41413;52.770;6.892;2023-05-29T01:29:17;11.30;99.90
52889;DHT22;41413;52.770;6.892;2023-05-29T01:31:47;11.20;99.90
52889;DHT22;41413;52.770;6.892;2023-05-29T01:34:14;11.20;99.90
52889;DHT22;41413;52.770;6.892;2023-05-29T01:36:41;11.10;99.90
52889;DHT22;41413;52.770;6.892;2023-05-29T01:39:09;11.10;99.90
52889;DHT22;41413;52.770;6.892;2023-05-29T01:41:36;11.10;99.90
52889;DHT22;41413;52.770;6.892;2023-05-29T01:44:07;11.00;99.90
52889;DHT22;41413;52.770;6.892;2023-05-29T01:46:37;11.00;99.90
52889;DHT22;41413;52.770;6.892;2023-05-29T01:49:04;11.00;99.90
52889;DHT22;41413;52.770;6.892;2023-05-29T01:51:31;10.90;99.90
52889;DHT22;41413;52.770;6.892;2023-05-29T01:53:59;10.90;99.90
52889;DHT22;41413;52.770;6.892;2023-05-29T01:56:28;10.90;99.90
52889;DHT22;41413;52.770;6.892;2023-05-29T01:58:56;11.00;99.90
52889;DHT22;41413;52.770;6.892;2023-05-29T02:01:23;10.90;99.90
52889;DHT22;41413;52.770;6.892;2023-05-29T02:03:51;10.90;99.90
52889;DHT22;41413;52.770;6.892;2023-05-29T02:06:18;10.90;99.90
52889;DHT22;41413;52.770;6.892;2023-05-29T02:08:45;10.80;99.90
52889;DHT22;41413;52.770;6.892;2023-05-29T02:11:12;10.80;99.90
52889;DHT22;41413;52.770;6.892;2023-05-29T02:13:39;10.80;99.90
52889;DHT22;41413;52.770;6.892;2023-05-29T02:16:06;10.70;99.90
52889;DHT22;41413;52.770;6.892;2023-05-29T02:18:33;10.70;99.90
52889;DHT22;41413;52.770;6.892;2023-05-29T02:21:01;10.70;99.90
52889;DHT22;41413;52.770;6.892;2023-05-29T02:23:28;10.70;99.90
52889;DHT22;41413;52.770;6.892;2023-05-29T02:25:56;10.60;99.90
52889;DHT22;41413;52.770;6.892;2023-05-29T02:28:22;10.60;99.90
52889;DHT22;41413;52.770;6.892;2023-05-29T02:30:50;10.60;99.90
52889;DHT22;41413;52.770;6.892;2023-05-29T02:33:16;10.60;99.90
52889;DHT22;41413;52.770;6.892;2023-05-29T02:35:43;10.60;99.90
52889;DHT22;41413;52.770;6.892;2023-05-29T02:38:10;10.50;99.90
52889;DHT22;41413;52.770;6.892;2023-05-29T02:40:37;10.50;99.90
52889;DHT22;41413;52.770;6.892;2023-05-29T02:43:05;10.50;99.90
52889;DHT22;41413;52.770;6.892;2023-05-29T02:45:32;10.50;99.90
52889;DHT22;41413;52.770;6.892;2023-05-29T02:47:58;10.50;99.90
52889;DHT22;41413;52.770;6.892;2023-05-29T02:50:26;10.50;99.90
52889;DHT22;41413;52.770;6.892;2023-05-29T02:52:53;10.50;99.90
52889;DHT22;41413;52.770;6.892;2023-05-29T02:55:19;10.50;99.90
52889;DHT22;41413;52.770;6.892;2023-05-29T02:57:46;10.40;99.90
52889;DHT22;41413;52.770;6.892;2023-05-29T03:00:15;10.40;99.90
52889;DHT22;41413;52.770;6.892;2023-05-29T03:02:42;10.40;99.90
52889;DHT22;41413;52.770;6.892;2023-05-29T03:05:08;10.40;99.90
52889;DHT22;41413;52.770;6.892;2023-05-29T03:07:36;10.30;99.90
52889;DHT22;41413;52.770;6.892;2023-05-29T03:10:02;10.50;99.90
52889;DHT22;41413;52.770;6.892;2023-05-29T03:12:30;10.30;99.90
52889;DHT22;41413;52.770;6.892;2023-05-29T03:14:57;10.30;99.90
52889;DHT22;41413;52.770;6.892;2023-05-29T03:17:24;10.30;99.90
52889;DHT22;41413;52.770;6.892;2023-05-29T03:19:50;10.30;99.90
52889;DHT22;41413;52.770;6.892;2023-05-29T03:22:18;10.20;99.90
52889;DHT22;41413;52.770;6.892;2023-05-29T03:24:44;10.20;99.90
52889;DHT22;41413;52.770;6.892;2023-05-29T03:27:11;10.20;99.90
52889;DHT22;41413;52.770;6.892;2023-05-29T03:29:38;10.20;99.90
52889;DHT22;41413;52.770;6.892;2023-05-29T03:32:05;10.20;99.90
52889;DHT22;41413;52.770;6.892;2023-05-29T03:34:31;10.20;99.90
52889;DHT22;41413;52.770;6.892;2023-05-29T03:36:58;10.20;99.90
52889;DHT22;41413;52.770;6.892;2023-05-29T03:39:25;10.20;99.90
52889;DHT22;41413;52.770;6.892;2023-05-29T03:41:52;10.20;99.90
52889;DHT22;41413;52.770;6.892;2023-05-29T03:44:18;10.10;99.90
52889;DHT22;41413;52.770;6.892;2023-05-29T03:46:45;10.20;99.90
52889;DHT22;41413;52.770;6.892;2023-05-29T03:49:12;10.20;99.90
52889;DHT22;41413;52.770;6.892;2023-05-29T03:51:39;10.20;99.90
52889;DHT22;41413;52.770;6.892;2023-05-29T03:54:05;10.20;99.90
52889;DHT22;41413;52.770;6.892;2023-05-29T03:56:32;10.10;99.90
52889;DHT22;41413;52.770;6.892;2023-05-29T03:58:59;10.10;99.90
52889;DHT22;41413;52.770;6.892;2023-05-29T04:01:26;10.20;99.90
52889;DHT22;41413;52.770;6.892;2023-05-29T04:03:53;10.10;99.90
52889;DHT22;41413;52.770;6.892;2023-05-29T04:06:20;10.20;99.90
52889;DHT22;41413;52.770;6.892;2023-05-29T04:08:46;10.20;99.90
52889;DHT22;41413;52.770;6.892;2023-05-29T04:11:14;10.30;99.90
52889;DHT22;41413;52.770;6.892;2023-05-29T04:13:41;10.30;99.90
52889;DHT22;41413;52.770;6.892;2023-05-29T04:16:08;10.30;99.90
52889;DHT22;41413;52.770;6.892;2023-05-29T04:18:35;10.20;99.90
52889;DHT22;41413;52.770;6.892;2023-05-29T04:21:02;10.30;99.90
52889;DHT22;41413;52.770;6.892;2023-05-29T04:23:29;10.30;99.90
52889;DHT22;41413;52.770;6.892;2023-05-29T04:25:56;10.30;99.90
52889;DHT22;41413;52.770;6.892;2023-05-29T04:28:24;10.30;99.90
52889;DHT22;41413;52.770;6.892;2023-05-29T04:30:51;10.30;99.90
52889;DHT22;41413;52.770;6.892;2023-05-29T04:33:20;10.30;99.90
52889;DHT22;41413;52.770;6.892;2023-05-29T04:35:47;10.40;99.90
52889;DHT22;41413;52.770;6.892;2023-05-29T04:38:15;10.40;99.90
52889;DHT22;41413;52.770;6.892;2023-05-29T04:40:45;10.40;99.90
52889;DHT22;41413;52.770;6.892;2023-05-29T04:43:11;10.50;99.90
52889;DHT22;41413;52.770;6.892;2023-05-29T04:45:38;10.50;99.90
52889;DHT22;41413;52.770;6.892;2023-05-29T04:48:05;10.60;99.90
52889;DHT22;41413;52.770;6.892;2023-05-29T04:50:32;10.60;99.90
52889;DHT22;41413;52.770;6.892;2023-05-29T04:53:00;10.60;99.90
52889;DHT22;41413;52.770;6.892;2023-05-29T04:55:26;10.60;99.90
52889;DHT22;41413;52.770;6.892;2023-05-29T04:57:54;10.70;99.90
52889;DHT22;41413;52.770;6.892;2023-05-29T05:00:20;10.70;99.90
52889;DHT22;41413;52.770;6.892;2023-05-29T05:02:49;10.80;99.90
52889;DHT22;41413;52.770;6.892;2023-05-29T05:05:16;10.80;99.90
52889;DHT22;41413;52.770;6.892;2023-05-29T05:07:42;10.80;99.90
52889;DHT22;41413;52.770;6.892;2023-05-29T05:10:09;10.80;99.90
52889;DHT22;41413;52.770;6.892;2023-05-29T05:12:36;10.90;99.90
52889;DHT22;41413;52.770;6.892;2023-05-29T05:15:03;10.90;99.90
52889;DHT22;41413;52.770;6.892;2023-05-29T05:17:30;11.00;99.90
52889;DHT22;41413;52.770;6.892;2023-05-29T05:19:57;11.00;99.90
52889;DHT22;41413;52.770;6.892;2023-05-29T05:22:24;11.10;99.90
52889;DHT22;41413;52.770;6.892;2023-05-29T05:24:51;11.10;99.90
52889;DHT22;41413;52.770;6.892;2023-05-29T05:27:19;11.10;99.90
52889;DHT22;41413;52.770;6.892;2023-05-29T05:29:46;11.20;99.90
52889;DHT22;41413;52.770;6.892;2023-05-29T05:32:12;11.30;99.90
52889;DHT22;41413;52.770;6.892;2023-05-29T05:34:39;11.40;99.90
52889;DHT22;41413;52.770;6.892;2023-05-29T05:37:06;11.30;99.90
52889;DHT22;41413;52.770;6.892;2023-05-29T05:39:33;11.40;99.90
52889;DHT22;41413;52.770;6.892;2023-05-29T05:42:00;11.50;99.90
52889;DHT22;41413;52.770;6.892;2023-05-29T05:44:27;11.60;99.90
52889;DHT22;41413;52.770;6.892;2023-05-29T05:46:54;11.60;99.90
52889;DHT22;41413;52.770;6.892;2023-05-29T05:49:21;11.70;99.90
52889;DHT22;41413;52.770;6.892;2023-05-29T05:51:48;11.70;99.90
52889;DHT22;41413;52.770;6.892;2023-05-29T05:54:16;11.70;99.90
52889;DHT22;41413;52.770;6.892;2023-05-29T05:56:43;11.70;99.90
52889;DHT22;41413;52.770;6.892;2023-05-29T05:59:09;11.80;99.90
52889;DHT22;41413;52.770;6.892;2023-05-29T06:01:36;11.90;99.90
52889;DHT22;41413;52.770;6.892;2023-05-29T06:04:04;11.90;99.90
52889;DHT22;41413;52.770;6.892;2023-05-29T06:06:30;11.90;99.90
52889;DHT22;41413;52.770;6.892;2023-05-29T06:08:58;12.00;99.90
52889;DHT22;41413;52.770;6.892;2023-05-29T06:11:25;12.10;99.90
52889;DHT22;41413;52.770;6.892;2023-05-29T06:13:52;12.00;99.90
52889;DHT22;41413;52.770;6.892;2023-05-29T06:16:19;12.00;99.90
52889;DHT22;41413;52.770;6.892;2023-05-29T06:18:46;12.00;99.90
52889;DHT22;41413;52.770;6.892;2023-05-29T06:21:13;12.10;99.90
52889;DHT22;41413;52.770;6.892;2023-05-29T06:23:43;12.10;99.90
52889;DHT22;41413;52.770;6.892;2023-05-29T06:26:09;12.10;99.90
52889;DHT22;41413;52.770;6.892;2023-05-29T06:28:38;12.20;99.90
52889;DHT22;41413;52.770;6.892;2023-05-29T06:31:05;12.20;99.90
52889;DHT22;41413;52.770;6.892;2023-05-29T06:33:32;12.30;99.90
52889;DHT22;41413;52.770;6.892;2023-05-29T06:35:58;12.40;99.90
52889;DHT22;41413;52.770;6.892;2023-05-29T06:38:29;12.40;99.90
52889;DHT22;41413;52.770;6.892;2023-05-29T06:40:56;12.40;99.90
52889;DHT22;41413;52.770;6.892;2023-05-29T06:43:23;12.50;99.90
52889;DHT22;41413;52.770;6.892;2023-05-29T06:45:49;12.80;99.90
52889;DHT22;41413;52.770;6.892;2023-05-29T06:48:16;13.00;99.90
52889;DHT22;41413;52.770;6.892;2023-05-29T06:50:43;13.10;99.90
52889;DHT22;41413;52.770;6.892;2023-05-29T06:53:10;13.10;99.90
52889;DHT22;41413;52.770;6.892;2023-05-29T06:55:37;13.10;99.90
52889;DHT22;41413;52.770;6.892;2023-05-29T06:58:04;13.10;99.90
52889;DHT22;41413;52.770;6.892;2023-05-29T07:00:30;13.10;99.90
52889;DHT22;41413;52.770;6.892;2023-05-29T07:02:57;13.10;99.90
52889;DHT22;41413;52.770;6.892;2023-05-29T07:05:26;13.20;99.90
52889;DHT22;41413;52.770;6.892;2023-05-29T07:07:53;13.20;99.90
52889;DHT22;41413;52.770;6.892;2023-05-29T07:10:20;13.30;99.90
52889;DHT22;41413;52.770;6.892;2023-05-29T07:12:46;13.30;99.90
52889;DHT22;41413;52.770;6.892;2023-05-29T07:15:13;13.40;99.90
52889;DHT22;41413;52.770;6.892;2023-05-29T07:17:41;13.50;99.90
52889;DHT22;41413;52.770;6.892;2023-05-29T07:20:08;13.50;99.90
52889;DHT22;41413;52.770;6.892;2023-05-29T07:22:35;13.50;99.90
52889;DHT22;41413;52.770;6.892;2023-05-29T07:25:03;13.50;99.90
52889;DHT22;41413;52.770;6.892;2023-05-29T07:27:30;13.70;99.90
52889;DHT22;41413;52.770;6.892;2023-05-29T07:29:56;13.80;99.90
52889;DHT22;41413;52.770;6.892;2023-05-29T07:32:23;13.90;99.90
52889;DHT22;41413;52.770;6.892;2023-05-29T07:34:50;13.90;99.90
52889;DHT22;41413;52.770;6.892;2023-05-29T07:37:17;14.00;99.90
52889;DHT22;41413;52.770;6.892;2023-05-29T07:39:45;14.00;99.90
52889;DHT22;41413;52.770;6.892;2023-05-29T07:42:12;14.10;99.90
52889;DHT22;41413;52.770;6.892;2023-05-29T07:44:39;14.10;99.90
52889;DHT22;41413;52.770;6.892;2023-05-29T07:47:08;14.20;99.90
52889;DHT22;41413;52.770;6.892;2023-05-29T07:49:35;14.20;99.90
52889;DHT22;41413;52.770;6.892;2023-05-29T07:52:03;14.30;99.90
52889;DHT22;41413;52.770;6.892;2023-05-29T07:54:31;14.40;99.90
52889;DHT22;41413;52.770;6.892;2023-05-29T07:56:59;14.40;99.90
52889;DHT22;41413;52.770;6.892;2023-05-29T07:59:26;14.40;99.90
52889;DHT22;41413;52.770;6.892;2023-05-29T08:01:53;14.60;99.90
52889;DHT22;41413;52.770;6.892;2023-05-29T08:04:20;14.70;99.90
52889;DHT22;41413;52.770;6.892;2023-05-29T08:06:46;14.70;99.90
52889;DHT22;41413;52.770;6.892;2023-05-29T08:09:13;14.80;99.90
52889;DHT22;41413;52.770;6.892;2023-05-29T08:11:40;15.00;99.90
52889;DHT22;41413;52.770;6.892;2023-05-29T08:14:07;15.10;99.90
52889;DHT22;41413;52.770;6.892;2023-05-29T08:16:34;15.20;99.90
52889;DHT22;41413;52.770;6.892;2023-05-29T08:19:01;15.30;99.90
52889;DHT22;41413;52.770;6.892;2023-05-29T08:21:27;15.40;99.90
52889;DHT22;41413;52.770;6.892;2023-05-29T08:23:54;15.40;99.90
52889;DHT22;41413;52.770;6.892;2023-05-29T08:26:21;15.50;99.90
52889;DHT22;41413;52.770;6.892;2023-05-29T08:28:48;15.70;99.90
52889;DHT22;41413;52.770;6.892;2023-05-29T08:31:15;15.90;99.90
52889;DHT22;41413;52.770;6.892;2023-05-29T08:33:42;16.50;99.90
52889;DHT22;41413;52.770;6.892;2023-05-29T08:36:09;17.40;99.90
52889;DHT22;41413;52.770;6.892;2023-05-29T08:38:36;18.10;98.80
52889;DHT22;41413;52.770;6.892;2023-05-29T08:41:03;18.60;98.10
52889;DHT22;41413;52.770;6.892;2023-05-29T08:43:32;19.20;97.40
52889;DHT22;41413;52.770;6.892;2023-05-29T08:46:00;19.70;96.80
52889;DHT22;41413;52.770;6.892;2023-05-29T08:48:29;20.20;96.10
52889;DHT22;41413;52.770;6.892;2023-05-29T08:50:58;20.30;95.70
52889;DHT22;41413;52.770;6.892;2023-05-29T08:53:26;20.60;94.30
52889;DHT22;41413;52.770;6.892;2023-05-29T08:55:53;21.10;95.10
52889;DHT22;41413;52.770;6.892;2023-05-29T08:58:20;21.40;94.50
52889;DHT22;41413;52.770;6.892;2023-05-29T09:00:48;21.70;94.30
52889;DHT22;41413;52.770;6.892;2023-05-29T09:03:16;21.70;94.00
52889;DHT22;41413;52.770;6.892;2023-05-29T09:05:44;22.00;93.60
52889;DHT22;41413;52.770;6.892;2023-05-29T09:08:11;22.00;92.90
52889;DHT22;41413;52.770;6.892;2023-05-29T09:10:41;22.10;92.50
52889;DHT22;41413;52.770;6.892;2023-05-29T09:13:08;22.30;92.30
52889;DHT22;41413;52.770;6.892;2023-05-29T09:15:36;22.40;92.70
52889;DHT22;41413;52.770;6.892;2023-05-29T09:18:06;22.60;92.40
52889;DHT22;41413;52.770;6.892;2023-05-29T09:20:35;22.90;92.00
52889;DHT22;41413;52.770;6.892;2023-05-29T09:23:08;23.10;91.70
52889;DHT22;41413;52.770;6.892;2023-05-29T09:25:40;23.10;91.10
52889;DHT22;41413;52.770;6.892;2023-05-29T09:28:09;23.10;91.10
52889;DHT22;41413;52.770;6.892;2023-05-29T09:30:46;23.00;90.80
52889;DHT22;41413;52.770;6.892;2023-05-29T09:33:14;22.70;90.10
52889;DHT22;41413;52.770;6.892;2023-05-29T09:35:49;22.40;90.70
52889;DHT22;41413;52.770;6.892;2023-05-29T09:38:17;22.50;90.30
52889;DHT22;41413;52.770;6.892;2023-05-29T09:40:47;22.20;90.50
52889;DHT22;41413;52.770;6.892;2023-05-29T09:43:16;22.00;90.30
52889;DHT22;41413;52.770;6.892;2023-05-29T09:45:48;21.80;90.10
52889;DHT22;41413;52.770;6.892;2023-05-29T09:48:22;21.50;90.50
52889;DHT22;41413;52.770;6.892;2023-05-29T09:50:49;21.60;90.50
52889;DHT22;41413;52.770;6.892;2023-05-29T09:53:23;21.60;90.70
52889;DHT22;41413;52.770;6.892;2023-05-29T09:55:52;21.80;91.10
52889;DHT22;41413;52.770;6.892;2023-05-29T09:58:23;21.80;91.10
52889;DHT22;41413;52.770;6.892;2023-05-29T10:00:51;21.70;90.50
52889;DHT22;41413;52.770;6.892;2023-05-29T10:03:19;21.60;91.10
52889;DHT22;41413;52.770;6.892;2023-05-29T10:05:52;21.80;90.80
52889;DHT22;41413;52.770;6.892;2023-05-29T10:08:23;21.90;90.30
52889;DHT22;41413;52.770;6.892;2023-05-29T10:10:56;22.10;90.00
52889;DHT22;41413;52.770;6.892;2023-05-29T10:13:25;22.00;89.40
52889;DHT22;41413;52.770;6.892;2023-05-29T10:15:55;21.90;89.00
52889;DHT22;41413;52.770;6.892;2023-05-29T10:18:37;21.80;89.10
52889;DHT22;41413;52.770;6.892;2023-05-29T10:21:05;21.80;89.00
52889;DHT22;41413;52.770;6.892;2023-05-29T10:23:36;21.60;89.90
52889;DHT22;41413;52.770;6.892;2023-05-29T10:26:14;21.60;90.10
52889;DHT22;41413;52.770;6.892;2023-05-29T10:28:46;21.80;90.60
52889;DHT22;41413;52.770;6.892;2023-05-29T10:31:26;21.90;90.00
52889;DHT22;41413;52.770;6.892;2023-05-29T10:37:02;22.00;89.80
52889;DHT22;41413;52.770;6.892;2023-05-29T10:39:32;22.10;90.10
52889;DHT22;41413;52.770;6.892;2023-05-29T10:42:00;22.10;90.40
52889;DHT22;41413;52.770;6.892;2023-05-29T10:49:27;22.40;90.10
52889;DHT22;41413;52.770;6.892;2023-05-29T10:51:53;22.40;89.50
52889;DHT22;41413;52.770;6.892;2023-05-29T10:54:25;22.50;89.70
52889;DHT22;41413;52.770;6.892;2023-05-29T10:56:56;22.50;89.50
52889;DHT22;41413;52.770;6.892;2023-05-29T10:59:24;22.50;89.00
52889;DHT22;41413;52.770;6.892;2023-05-29T11:01:55;22.50;88.80
52889;DHT22;41413;52.770;6.892;2023-05-29T11:06:53;22.50;88.90
52889;DHT22;41413;52.770;6.892;2023-05-29T11:09:32;22.60;88.90
52889;DHT22;41413;52.770;6.892;2023-05-29T11:12:24;22.50;88.60
52889;DHT22;41413;52.770;6.892;2023-05-29T11:15:03;22.40;88.50
52889;DHT22;41413;52.770;6.892;2023-05-29T11:20:06;22.50;89.30
52889;DHT22;41413;52.770;6.892;2023-05-29T11:25:07;22.30;88.90
52889;DHT22;41413;52.770;6.892;2023-05-29T11:27:34;22.50;89.30
52889;DHT22;41413;52.770;6.892;2023-05-29T11:30:04;22.60;89.20
52889;DHT22;41413;52.770;6.892;2023-05-29T11:32:34;22.60;86.90
52889;DHT22;41413;52.770;6.892;2023-05-29T11:35:09;22.50;87.20
52889;DHT22;41413;52.770;6.892;2023-05-29T11:37:41;22.60;88.00
52889;DHT22;41413;52.770;6.892;2023-05-29T11:40:10;22.50;87.50
52889;DHT22;41413;52.770;6.892;2023-05-29T11:42:44;22.60;87.40
52889;DHT22;41413;52.770;6.892;2023-05-29T11:45:20;22.70;87.50
52889;DHT22;41413;52.770;6.892;2023-05-29T11:48:01;22.80;87.20
52889;DHT22;41413;52.770;6.892;2023-05-29T11:50:30;23.00;85.80
52889;DHT22;41413;52.770;6.892;2023-05-29T11:52:58;22.90;87.10
52889;DHT22;41413;52.770;6.892;2023-05-29T11:55:26;22.90;86.50
52889;DHT22;41413;52.770;6.892;2023-05-29T11:58:00;22.90;86.20
52889;DHT22;41413;52.770;6.892;2023-05-29T12:00:35;22.60;85.60
52889;DHT22;41413;52.770;6.892;2023-05-29T12:03:03;22.60;85.80
52889;DHT22;41413;52.770;6.892;2023-05-29T12:05:32;22.50;86.00
52889;DHT22;41413;52.770;6.892;2023-05-29T12:07:59;22.50;86.60
52889;DHT22;41413;52.770;6.892;2023-05-29T12:10:28;22.50;87.10
52889;DHT22;41413;52.770;6.892;2023-05-29T12:12:58;22.60;87.70
52889;DHT22;41413;52.770;6.892;2023-05-29T12:15:24;22.60;87.70
52889;DHT22;41413;52.770;6.892;2023-05-29T12:17:54;22.70;87.60
52889;DHT22;41413;52.770;6.892;2023-05-29T12:20:24;22.80;86.20
52889;DHT22;41413;52.770;6.892;2023-05-29T12:22:54;22.80;86.60
52889;DHT22;41413;52.770;6.892;2023-05-29T12:25:25;22.70;86.90
52889;DHT22;41413;52.770;6.892;2023-05-29T12:27:55;22.70;87.10
52889;DHT22;41413;52.770;6.892;2023-05-29T12:30:24;22.70;87.10
52889;DHT22;41413;52.770;6.892;2023-05-29T12:33:00;22.70;86.80
52889;DHT22;41413;52.770;6.892;2023-05-29T12:35:29;22.60;87.10
52889;DHT22;41413;52.770;6.892;2023-05-29T12:38:05;22.60;87.60
52889;DHT22;41413;52.770;6.892;2023-05-29T12:40:35;22.70;87.60
52889;DHT22;41413;52.770;6.892;2023-05-29T12:43:06;22.70;87.80
52889;DHT22;41413;52.770;6.892;2023-05-29T12:45:34;22.60;87.90
52889;DHT22;41413;52.770;6.892;2023-05-29T12:48:05;22.50;87.90
52889;DHT22;41413;52.770;6.892;2023-05-29T12:50:39;22.60;88.50
52889;DHT22;41413;52.770;6.892;2023-05-29T12:53:10;22.80;88.70
52889;DHT22;41413;52.770;6.892;2023-05-29T12:55:39;22.70;88.10
52889;DHT22;41413;52.770;6.892;2023-05-29T12:58:13;22.80;87.30
52889;DHT22;41413;52.770;6.892;2023-05-29T13:00:41;22.80;87.40
52889;DHT22;41413;52.770;6.892;2023-05-29T13:03:09;22.90;87.80
52889;DHT22;41413;52.770;6.892;2023-05-29T13:05:37;22.80;87.60
52889;DHT22;41413;52.770;6.892;2023-05-29T13:08:04;22.80;87.70
52889;DHT22;41413;52.770;6.892;2023-05-29T13:10:34;22.70;87.50
52889;DHT22;41413;52.770;6.892;2023-05-29T13:13:01;22.80;87.80
52889;DHT22;41413;52.770;6.892;2023-05-29T13:15:28;22.80;87.40
52889;DHT22;41413;52.770;6.892;2023-05-29T13:17:55;22.60;86.50
52889;DHT22;41413;52.770;6.892;2023-05-29T13:20:22;22.50;85.80
52889;DHT22;41413;52.770;6.892;2023-05-29T13:22:49;22.40;85.50
52889;DHT22;41413;52.770;6.892;2023-05-29T13:25:17;22.30;86.40
52889;DHT22;41413;52.770;6.892;2023-05-29T13:27:46;22.40;87.10
52889;DHT22;41413;52.770;6.892;2023-05-29T13:30:13;22.50;86.00
52889;DHT22;41413;52.770;6.892;2023-05-29T13:32:41;22.40;85.20
52889;DHT22;41413;52.770;6.892;2023-05-29T13:35:08;22.40;85.30
52889;DHT22;41413;52.770;6.892;2023-05-29T13:37:36;22.60;84.80
52889;DHT22;41413;52.770;6.892;2023-05-29T13:40:04;22.60;85.40
52889;DHT22;41413;52.770;6.892;2023-05-29T13:42:32;22.60;85.50
52889;DHT22;41413;52.770;6.892;2023-05-29T13:44:59;22.70;85.70
52889;DHT22;41413;52.770;6.892;2023-05-29T13:47:26;22.50;85.50
52889;DHT22;41413;52.770;6.892;2023-05-29T13:49:58;22.50;84.80
52889;DHT22;41413;52.770;6.892;2023-05-29T13:52:26;22.40;85.10
52889;DHT22;41413;52.770;6.892;2023-05-29T13:54:53;22.30;85.60
52889;DHT22;41413;52.770;6.892;2023-05-29T13:57:20;22.40;86.00
52889;DHT22;41413;52.770;6.892;2023-05-29T13:59:46;22.30;85.60
52889;DHT22;41413;52.770;6.892;2023-05-29T14:02:13;22.30;85.50
52889;DHT22;41413;52.770;6.892;2023-05-29T14:04:40;22.20;85.20
52889;DHT22;41413;52.770;6.892;2023-05-29T14:07:09;22.00;84.30
52889;DHT22;41413;52.770;6.892;2023-05-29T14:09:36;22.00;83.70
52889;DHT22;41413;52.770;6.892;2023-05-29T14:12:03;22.00;83.90
52889;DHT22;41413;52.770;6.892;2023-05-29T14:14:29;22.00;84.40
52889;DHT22;41413;52.770;6.892;2023-05-29T14:16:56;22.00;84.60
52889;DHT22;41413;52.770;6.892;2023-05-29T14:19:23;22.00;85.00
52889;DHT22;41413;52.770;6.892;2023-05-29T14:21:50;22.20;84.20
52889;DHT22;41413;52.770;6.892;2023-05-29T14:24:18;22.10;83.30
52889;DHT22;41413;52.770;6.892;2023-05-29T14:26:45;22.00;83.20
52889;DHT22;41413;52.770;6.892;2023-05-29T14:29:14;21.90;83.50
52889;DHT22;41413;52.770;6.892;2023-05-29T14:31:42;21.90;83.20
52889;DHT22;41413;52.770;6.892;2023-05-29T14:34:11;21.90;82.90
52889;DHT22;41413;52.770;6.892;2023-05-29T14:36:38;21.80;83.40
52889;DHT22;41413;52.770;6.892;2023-05-29T14:39:06;21.80;83.80
52889;DHT22;41413;52.770;6.892;2023-05-29T14:41:33;21.70;82.90
52889;DHT22;41413;52.770;6.892;2023-05-29T14:44:02;21.60;83.00
52889;DHT22;41413;52.770;6.892;2023-05-29T14:46:29;21.50;83.00
52889;DHT22;41413;52.770;6.892;2023-05-29T14:48:59;21.60;83.50
52889;DHT22;41413;52.770;6.892;2023-05-29T14:51:27;21.50;83.60
52889;DHT22;41413;52.770;6.892;2023-05-29T14:53:54;21.50;83.30
52889;DHT22;41413;52.770;6.892;2023-05-29T14:56:21;21.40;83.20
52889;DHT22;41413;52.770;6.892;2023-05-29T14:58:48;21.40;83.20
52889;DHT22;41413;52.770;6.892;2023-05-29T15:01:15;21.40;83.00
52889;DHT22;41413;52.770;6.892;2023-05-29T15:03:43;21.40;84.00
52889;DHT22;41413;52.770;6.892;2023-05-29T15:06:11;21.50;84.00
52889;DHT22;41413;52.770;6.892;2023-05-29T15:08:41;21.50;84.90
52889;DHT22;41413;52.770;6.892;2023-05-29T15:11:10;21.30;84.50
52889;DHT22;41413;52.770;6.892;2023-05-29T15:13:38;21.30;85.10
52889;DHT22;41413;52.770;6.892;2023-05-29T15:16:05;21.00;85.70
52889;DHT22;41413;52.770;6.892;2023-05-29T15:18:33;21.10;85.60
52889;DHT22;41413;52.770;6.892;2023-05-29T15:21:00;20.90;85.80
52889;DHT22;41413;52.770;6.892;2023-05-29T15:23:27;20.90;86.30
52889;DHT22;41413;52.770;6.892;2023-05-29T15:25:54;20.90;86.60
52889;DHT22;41413;52.770;6.892;2023-05-29T15:28:21;20.90;86.20
52889;DHT22;41413;52.770;6.892;2023-05-29T15:30:48;20.80;86.30
52889;DHT22;41413;52.770;6.892;2023-05-29T15:33:15;20.80;86.40
52889;DHT22;41413;52.770;6.892;2023-05-29T15:35:42;20.70;86.30
52889;DHT22;41413;52.770;6.892;2023-05-29T15:38:10;20.70;86.50
52889;DHT22;41413;52.770;6.892;2023-05-29T15:40:39;20.60;86.50
52889;DHT22;41413;52.770;6.892;2023-05-29T15:43:07;20.60;86.60
52889;DHT22;41413;52.770;6.892;2023-05-29T15:45:33;20.50;86.70
52889;DHT22;41413;52.770;6.892;2023-05-29T15:48:00;20.50;87.20
52889;DHT22;41413;52.770;6.892;2023-05-29T15:50:27;20.50;86.80
52889;DHT22;41413;52.770;6.892;2023-05-29T15:52:54;20.50;86.60
52889;DHT22;41413;52.770;6.892;2023-05-29T15:55:22;20.40;86.30
52889;DHT22;41413;52.770;6.892;2023-05-29T15:57:50;20.30;86.40
52889;DHT22;41413;52.770;6.892;2023-05-29T16:00:18;20.20;86.50